createdAt,value
2018-05-04T00:02:23.263Z,100123.00
2018-05-04T00:04:55.827Z,100129.96
2018-05-04T00:07:29.761Z,100130.69
2018-05-04T00:10:03.829Z,100147.42
2018-05-04T00:12:36.417Z,100135.80
2018-05-04T00:15:07.655Z,100147.27
2018-05-04T00:17:40.329Z,100142.98
2018-05-04T00:20:11.653Z,100149.67
2018-05-04T00:22:43.870Z,100147.03
2018-05-04T00:25:16.526Z,100144.94
2018-05-04T00:27:49.687Z,100142.68
2018-05-04T00:30:21.936Z,100137.64
2018-05-04T00:32:56.703Z,100138.93
2018-05-04T00:35:28.942Z,100141.50
2018-05-04T00:38:00.329Z,100145.35
2018-05-04T00:40:32.818Z,100144.17
2018-05-04T00:43:06.830Z,100140.12
2018-05-04T00:45:39.094Z,100136.76
2018-05-04T00:48:11.306Z,100134.27
2018-05-04T00:50:42.637Z,100136.11
2018-05-04T00:53:15.217Z,100135.16
2018-05-04T00:55:50.062Z,100144.63
2018-05-04T00:58:21.438Z,100141.16
2018-05-04T01:00:54.122Z,100141.81
2018-05-04T01:03:26.278Z,100139.81
2018-05-04T01:06:00.196Z,100141.66
2018-05-04T01:08:32.227Z,100148.75
2018-05-04T01:11:04.525Z,100144.98
2018-05-04T01:13:38.022Z,100144.17
2018-05-04T01:16:11.960Z,100140.73
2018-05-04T01:18:44.072Z,100144.02
2018-05-04T01:21:18.231Z,100134.01
2018-05-04T01:23:51.390Z,100137.33
2018-05-04T01:26:25.614Z,100125.15
2018-05-04T01:28:57.836Z,100124.31
2018-05-04T01:31:31.809Z,100121.79
2018-05-04T01:34:04.421Z,100124.46
2018-05-04T01:36:38.347Z,100125.98
2018-05-04T01:39:10.575Z,100123.36
2018-05-04T01:41:42.363Z,100124.00
2018-05-04T01:44:15.513Z,100122.73
2018-05-04T01:46:46.906Z,100120.45
2018-05-04T01:49:20.849Z,100120.17
2018-05-04T01:51:54.749Z,100113.91
2018-05-04T01:54:28.338Z,100112.66
2018-05-04T01:56:59.707Z,100109.48
2018-05-04T01:59:33.228Z,100115.12
2018-05-04T02:02:06.390Z,100114.92
2018-05-04T02:04:38.713Z,100116.79
2018-05-04T02:07:12.227Z,100110.38
2018-05-04T02:09:43.681Z,100108.17
2018-05-04T02:12:17.595Z,100107.68
2018-05-04T02:14:49.280Z,100104.66
2018-05-04T02:17:22.411Z,100098.79
2018-05-04T02:19:56.473Z,100099.89
2018-05-04T02:22:28.123Z,100097.87
2018-05-04T02:25:00.892Z,100100.86
2018-05-04T02:27:35.137Z,100107.57
2018-05-04T02:30:08.261Z,100114.38
2018-05-04T02:32:42.213Z,100109.30
2018-05-04T02:35:15.371Z,100119.83
2018-05-04T02:37:49.765Z,100121.95
2018-05-04T02:40:23.643Z,100128.00
2018-05-04T02:42:57.870Z,100122.16
2018-05-04T02:45:31.058Z,100126.94
2018-05-04T02:48:03.340Z,100123.92
2018-05-04T02:50:36.454Z,100117.16
2018-05-04T02:53:09.665Z,100120.41
2018-05-04T02:55:43.339Z,100118.08
2018-05-04T02:58:17.230Z,100124.76
2018-05-04T03:00:50.884Z,100122.16
2018-05-04T03:03:24.814Z,100128.31
2018-05-04T03:05:57.050Z,100139.27
2018-05-04T03:08:30.522Z,100134.61
2018-05-04T03:11:03.831Z,100143.73
2018-05-04T03:13:37.733Z,100140.22
2018-05-04T03:16:12.155Z,100140.73
2018-05-04T03:18:46.062Z,100142.50
2018-05-04T03:21:19.251Z,100147.41
2018-05-04T03:23:51.476Z,100152.86
2018-05-04T03:26:24.593Z,100156.53
2018-05-04T03:28:56.876Z,100152.86
2018-05-04T03:31:30.255Z,100153.70
2018-05-04T03:34:03.425Z,100160.89
2018-05-04T03:36:37.684Z,100148.78
2018-05-04T03:39:11.806Z,100147.96
2018-05-04T03:41:45.270Z,100157.98
2018-05-04T03:44:19.265Z,100163.05
2018-05-04T03:46:52.474Z,100158.65
2018-05-04T03:49:25.993Z,100169.83
2018-05-04T03:51:58.362Z,100160.65
2018-05-04T03:54:31.705Z,100174.05
2018-05-04T03:57:14.694Z,100167.66
2018-05-04T03:59:58.677Z,100166.73
2018-05-04T04:04:07.738Z,100168.12
2018-05-04T04:06:42.616Z,100178.55
2018-05-04T04:09:15.168Z,100178.20
2018-05-04T04:11:48.289Z,100179.57
2018-05-04T04:14:21.814Z,100175.39
2018-05-04T04:16:54.155Z,100173.98
2018-05-04T04:19:27.323Z,100178.66
2018-05-04T04:22:01.511Z,100177.64
2018-05-04T04:24:35.370Z,100178.73
2018-05-04T04:27:08.672Z,100179.16
2018-05-04T04:29:44.928Z,100176.34
2018-05-04T04:32:18.074Z,100186.84
2018-05-04T04:34:51.332Z,100203.95
2018-05-04T04:37:24.477Z,100199.45
2018-05-04T04:39:56.011Z,100196.44
2018-05-04T04:42:28.517Z,100187.52
2018-05-04T04:44:59.958Z,100200.19
2018-05-04T04:47:31.285Z,100208.47
2018-05-04T04:50:06.255Z,100206.48
2018-05-04T04:52:38.549Z,100202.20
2018-05-04T04:55:10.697Z,100209.63
2018-05-04T04:57:42.883Z,100204.03
2018-05-04T05:00:17.384Z,100212.64
2018-05-04T05:02:51.749Z,100207.66
2018-05-04T05:05:24.556Z,100205.70
2018-05-04T05:07:57.691Z,100201.66
2018-05-04T05:10:30.277Z,100217.31
2018-05-04T05:13:04.103Z,100223.84
2018-05-04T05:15:38.700Z,100221.17
2018-05-04T05:18:13.162Z,100224.45
2018-05-04T05:20:45.378Z,100221.94
2018-05-04T05:23:20.956Z,100231.38
2018-05-04T05:25:54.924Z,100220.46
2018-05-04T05:28:28.957Z,100223.69
2018-05-04T05:31:03.476Z,100219.09
2018-05-04T05:33:37.544Z,100225.74
2018-05-04T05:36:11.804Z,100231.42
2018-05-04T05:38:44.964Z,100222.66
2018-05-04T05:41:18.095Z,100220.78
2018-05-04T05:43:52.751Z,100229.55
2018-05-04T05:46:25.894Z,100237.27
2018-05-04T05:48:58.024Z,100232.00
2018-05-04T05:51:29.671Z,100229.83
2018-05-04T05:54:02.794Z,100242.53
2018-05-04T05:56:34.337Z,100239.81
2018-05-04T05:59:07.489Z,100229.83
2018-05-04T06:01:42.249Z,100295.45
2018-05-04T06:04:16.285Z,100230.55
2018-05-04T06:06:50.131Z,100237.17
2018-05-04T06:09:23.334Z,100246.45
2018-05-04T06:11:56.958Z,100238.91
2018-05-04T06:14:30.791Z,100245.20
2018-05-04T06:17:04.232Z,100245.17
2018-05-04T06:19:37.506Z,100251.29
2018-05-04T06:22:11.394Z,100252.51
2018-05-04T06:24:44.092Z,100246.05
2018-05-04T06:27:21.200Z,100261.09
2018-05-04T06:29:55.342Z,100257.65
2018-05-04T06:32:29.605Z,100262.45
2018-05-04T06:35:02.699Z,100248.48
2018-05-04T06:37:36.151Z,100250.66
2018-05-04T06:40:08.242Z,100250.39
2018-05-04T06:42:41.358Z,100233.09
2018-05-04T06:45:16.072Z,100242.39
2018-05-04T06:47:49.230Z,100243.02
2018-05-04T06:50:26.174Z,100243.00
2018-05-04T06:53:00.510Z,100237.75
2018-05-04T06:58:12.968Z,100243.90
2018-05-04T07:00:46.208Z,100242.05
2018-05-04T07:03:19.799Z,100237.77
2018-05-04T07:05:52.103Z,100233.66
2018-05-04T07:08:25.992Z,100234.91
2018-05-04T07:10:59.542Z,100233.06
2018-05-04T07:13:33.445Z,100239.50
2018-05-04T07:16:06.625Z,100243.61
2018-05-04T07:18:41.560Z,100246.80
2018-05-04T07:21:15.569Z,100247.25
2018-05-04T07:23:47.825Z,100241.86
2018-05-04T07:26:21.127Z,100245.72
2018-05-04T07:28:55.075Z,100237.70
2018-05-04T07:31:28.852Z,100242.15
2018-05-04T07:34:01.119Z,100249.51
2018-05-04T07:36:34.314Z,100236.34
2018-05-04T07:39:08.989Z,100237.24
2018-05-04T07:41:41.394Z,100240.81
2018-05-04T07:44:23.963Z,100241.17
2018-05-04T07:46:57.438Z,100245.19
2018-05-04T07:49:28.872Z,100243.89
2018-05-04T07:52:04.504Z,100250.37
2018-05-04T07:54:42.957Z,100251.83
2018-05-04T07:57:24.884Z,100252.45
2018-05-04T07:59:58.226Z,100249.32
2018-05-04T08:02:32.151Z,100250.56
2018-05-04T08:05:05.525Z,100344.92
2018-05-04T08:07:39.250Z,100251.83
2018-05-04T08:10:14.159Z,100261.59
2018-05-04T08:12:50.573Z,100249.33
2018-05-04T08:15:22.814Z,100250.98
2018-05-04T08:17:55.429Z,100252.04
2018-05-04T08:20:29.017Z,100255.09
2018-05-04T08:23:01.187Z,100248.28
2018-05-04T08:25:32.528Z,100260.03
2018-05-04T08:28:07.694Z,100249.53
2018-05-04T08:30:39.560Z,100240.18
2018-05-04T08:33:12.856Z,100241.53
2018-05-04T08:35:46.512Z,100241.20
2018-05-04T08:38:18.277Z,100241.88
2018-05-04T08:40:55.028Z,100240.58
2018-05-04T08:43:28.933Z,100241.49
2018-05-04T08:46:00.350Z,100241.96
2018-05-04T08:48:34.474Z,100243.73
2018-05-04T08:51:06.598Z,100230.42
2018-05-04T08:53:39.037Z,100228.19
2018-05-04T08:56:11.680Z,100233.28
2018-05-04T08:58:43.079Z,100227.37
2018-05-04T09:01:15.495Z,100230.30
2018-05-04T09:03:50.220Z,100227.47
2018-05-04T09:06:23.773Z,100230.89
2018-05-04T09:08:56.980Z,100225.61
2018-05-04T09:11:32.449Z,100234.88
2018-05-04T09:14:04.714Z,100231.36
2018-05-04T09:16:36.259Z,100230.81
2018-05-04T09:19:08.558Z,100235.86
2018-05-04T09:21:41.280Z,100233.68
2018-05-04T09:24:13.154Z,100231.23
2018-05-04T09:26:44.545Z,100239.50
2018-05-04T09:29:16.790Z,100235.42
2018-05-04T09:31:48.219Z,100242.17
2018-05-04T09:34:21.446Z,100241.75
2018-05-04T09:36:54.357Z,100244.80
2018-05-04T09:39:27.475Z,100239.44
2018-05-04T09:42:00.671Z,100249.28
2018-05-04T09:44:33.905Z,100241.77
2018-05-04T09:47:06.267Z,100244.58
2018-05-04T09:49:39.091Z,100248.77
2018-05-04T09:52:11.608Z,100245.61
2018-05-04T09:54:45.186Z,100249.28
2018-05-04T09:57:17.892Z,100245.55
2018-05-04T09:59:50.271Z,100244.22
2018-05-04T10:02:25.591Z,100246.42
2018-05-04T10:04:59.784Z,100244.46
2018-05-04T10:07:34.616Z,100244.47
2018-05-04T10:10:09.125Z,100240.66
2018-05-04T10:12:42.855Z,100243.21
2018-05-04T10:15:16.964Z,100243.19
2018-05-04T10:17:49.181Z,100242.48
2018-05-04T10:20:22.342Z,100232.74
2018-05-04T10:22:58.764Z,100229.88
2018-05-04T10:25:33.112Z,100229.41
2018-05-04T10:28:07.230Z,100226.94
2018-05-04T10:30:42.186Z,100224.57
2018-05-04T10:33:16.298Z,100227.92
2018-05-04T10:35:48.291Z,100217.92
2018-05-04T10:38:21.692Z,100217.58
2018-05-04T10:40:55.093Z,100212.02
2018-05-04T10:43:29.104Z,100209.50
2018-05-04T10:46:01.482Z,100209.45
2018-05-04T10:48:35.514Z,100202.63
2018-05-04T10:51:10.456Z,100209.89
2018-05-04T10:53:44.380Z,100203.20
2018-05-04T10:56:18.311Z,100199.91
2018-05-04T10:58:51.070Z,100204.82
2018-05-04T11:01:23.472Z,100204.16
2018-05-04T11:03:59.060Z,100198.94
2018-05-04T11:06:33.008Z,100203.45
2018-05-04T11:09:07.723Z,100200.14
2018-05-04T11:11:40.804Z,100193.47
2018-05-04T11:14:14.972Z,100186.20
2018-05-04T11:16:49.609Z,100191.93
2018-05-04T11:19:23.459Z,100184.27
2018-05-04T11:21:54.915Z,100181.59
2018-05-04T11:24:29.319Z,100179.68
2018-05-04T11:27:02.056Z,100177.12
2018-05-04T11:29:33.857Z,100182.19
2018-05-04T11:32:07.612Z,100185.94
2018-05-04T11:34:49.630Z,100183.89
2018-05-04T11:37:24.590Z,100186.50
2018-05-04T11:39:57.713Z,100178.81
2018-05-04T11:42:29.220Z,100180.27
2018-05-04T11:45:03.467Z,100182.86
2018-05-04T11:47:35.671Z,100178.10
2018-05-04T11:50:07.176Z,100180.93
2018-05-04T11:52:39.416Z,100182.87
2018-05-04T11:55:11.280Z,100181.16
2018-05-04T11:57:44.046Z,100189.67
2018-05-04T12:00:17.248Z,100178.20
2018-05-04T12:02:51.345Z,100178.59
2018-05-04T12:05:25.527Z,100177.19
2018-05-04T12:07:59.694Z,100177.84
2018-05-04T12:10:32.043Z,100171.91
2018-05-04T12:13:04.380Z,100181.20
2018-05-04T12:15:37.032Z,100180.38
2018-05-04T12:18:09.355Z,100170.16
2018-05-04T12:20:41.611Z,100166.87
2018-05-04T12:23:14.334Z,100171.75
2018-05-04T12:25:48.138Z,100168.83
2018-05-04T12:28:21.636Z,100178.25
2018-05-04T12:30:53.230Z,100176.81
2018-05-04T12:33:24.639Z,100179.38
2018-05-04T12:35:56.006Z,100179.02
2018-05-04T12:38:27.542Z,100186.92
2018-05-04T12:41:02.359Z,100185.00
2018-05-04T12:43:36.306Z,100177.97
2018-05-04T12:46:08.590Z,100184.38
2018-05-04T12:48:40.383Z,100173.19
2018-05-04T12:51:12.152Z,100188.47
2018-05-04T12:53:45.456Z,100176.45
2018-05-04T12:56:17.816Z,100180.74
2018-05-04T12:58:52.599Z,100176.45
2018-05-04T13:01:27.175Z,100180.00
2018-05-04T13:03:58.759Z,100178.05
2018-05-04T13:06:30.189Z,100180.31
2018-05-04T13:09:01.642Z,100182.63
2018-05-04T13:11:33.890Z,100187.33
2018-05-04T13:14:06.367Z,100180.20
2018-05-04T13:16:40.271Z,100173.27
2018-05-04T13:19:13.103Z,100381.70
2018-05-04T13:21:45.339Z,100173.72
2018-05-04T13:24:17.629Z,100186.28
2018-05-04T13:26:49.269Z,100171.17
2018-05-04T13:29:27.181Z,100172.77
2018-05-04T13:32:00.562Z,100173.41
2018-05-04T13:34:32.923Z,100182.36
2018-05-04T13:37:06.661Z,100171.80
2018-05-04T13:39:40.644Z,100168.35
2018-05-04T13:42:14.036Z,100169.88
2018-05-04T13:44:46.901Z,100176.77
2018-05-04T13:47:20.570Z,100166.95
2018-05-04T13:49:53.802Z,100173.63
2018-05-04T13:52:27.458Z,100156.66
2018-05-04T13:55:05.459Z,100182.81
2018-05-04T14:00:55.536Z,100178.45
2018-05-04T14:03:28.876Z,100175.13
2018-05-04T14:06:02.591Z,100178.42
2018-05-04T14:08:35.919Z,100174.16
2018-05-04T14:11:09.188Z,100166.08
2018-05-04T14:13:42.455Z,100173.91
2018-05-04T14:16:15.667Z,100176.23
2018-05-04T14:18:49.354Z,100173.19
2018-05-04T14:21:21.906Z,100166.72
2018-05-04T14:23:55.073Z,100169.73
2018-05-04T14:26:28.817Z,100169.66
2018-05-04T14:29:06.848Z,100166.19
2018-05-04T14:31:42.540Z,100162.31
2018-05-04T14:34:15.942Z,100159.77
2018-05-04T14:36:47.308Z,100167.58
2018-05-04T14:39:19.811Z,100166.23
2018-05-04T14:41:52.123Z,100159.94
2018-05-04T14:44:23.822Z,100158.14
2018-05-04T14:46:57.126Z,100154.42
2018-05-04T14:49:31.487Z,100150.59
2018-05-04T14:52:03.143Z,100165.63
2018-05-04T14:54:36.321Z,100154.41
2018-05-04T14:57:07.813Z,100156.97
2018-05-04T14:59:40.020Z,100154.61
2018-05-04T15:02:15.627Z,100166.01
2018-05-04T15:04:48.942Z,100164.62
2018-05-04T15:07:22.361Z,100168.80
2018-05-04T15:09:58.338Z,100151.98
2018-05-04T15:12:31.468Z,100151.53
2018-05-04T15:15:06.257Z,100165.53
2018-05-04T15:17:41.667Z,100156.14
2018-05-04T15:20:13.950Z,100155.34
2018-05-04T15:22:47.163Z,100158.14
2018-05-04T15:25:21.135Z,100167.64
2018-05-04T15:27:54.562Z,100167.31
2018-05-04T15:30:28.429Z,100164.94
2018-05-04T15:33:00.953Z,100158.11
2018-05-04T15:35:34.232Z,100157.50
2018-05-04T15:38:07.390Z,100169.64
2018-05-04T15:40:40.359Z,100161.54
2018-05-04T15:43:14.287Z,100174.46
2018-05-04T15:45:52.838Z,100168.88
2018-05-04T15:48:29.589Z,100173.84
2018-05-04T15:51:06.953Z,100168.68
2018-05-04T15:53:40.140Z,100178.05
2018-05-04T15:56:13.589Z,100167.53
2018-05-04T15:58:48.250Z,100183.48
2018-05-04T16:01:21.537Z,100182.16
2018-05-04T16:03:54.725Z,100177.87
2018-05-04T16:06:30.188Z,100179.66
2018-05-04T16:09:01.636Z,100171.66
2018-05-04T16:11:35.627Z,100183.52
2018-05-04T16:14:08.402Z,100176.94
2018-05-04T16:16:42.366Z,100180.63
2018-05-04T16:19:14.571Z,100182.03
2018-05-04T16:21:48.484Z,100173.81
2018-05-04T16:24:19.946Z,100169.72
2018-05-04T16:26:53.546Z,100184.48
2018-05-04T16:29:25.196Z,100178.62
2018-05-04T16:31:59.094Z,100183.03
2018-05-04T16:34:32.885Z,100183.03
2018-05-04T16:37:05.210Z,100179.61
2018-05-04T16:39:37.523Z,100178.85
2018-05-04T16:42:11.096Z,100182.41
2018-05-04T16:44:43.405Z,100178.70
2018-05-04T16:47:20.672Z,100165.58
2018-05-04T16:49:53.835Z,100186.49
2018-05-04T16:52:26.237Z,100182.70
2018-05-04T16:54:58.582Z,100199.72
2018-05-04T16:57:33.122Z,100193.52
2018-05-04T17:00:07.904Z,100189.84
2018-05-04T17:02:39.352Z,100199.74
2018-05-04T17:05:11.668Z,100192.32
2018-05-04T17:07:43.132Z,100198.56
2018-05-04T17:10:14.744Z,100201.89
2018-05-04T17:12:46.290Z,100208.19
2018-05-04T17:15:19.643Z,100213.47
2018-05-04T17:17:54.622Z,100204.50
2018-05-04T17:20:28.947Z,100209.38
2018-05-04T17:23:01.195Z,100211.27
2018-05-04T17:25:33.425Z,100186.03
2018-05-04T17:28:08.000Z,100216.05
2018-05-04T17:30:39.360Z,100209.98
2018-05-04T17:33:10.825Z,100209.03
2018-05-04T17:35:42.526Z,100200.84
2018-05-04T17:38:14.839Z,100208.51
2018-05-04T17:40:46.362Z,100217.22
2018-05-04T17:43:17.591Z,100216.63
2018-05-04T17:45:49.469Z,100222.05
2018-05-04T17:48:21.666Z,100219.14
2018-05-04T17:50:53.191Z,100228.78
2018-05-04T17:53:24.777Z,100230.33
2018-05-04T17:55:56.474Z,100231.95
2018-05-04T17:58:28.766Z,100227.45
2018-05-04T18:01:00.091Z,100239.11
2018-05-04T18:03:31.719Z,100240.43
2018-05-04T18:06:03.089Z,100241.22
2018-05-04T18:08:35.234Z,100252.69
2018-05-04T18:11:06.538Z,100242.06
2018-05-04T18:13:37.956Z,100253.31
2018-05-04T18:16:09.757Z,100258.95
2018-05-04T18:18:41.216Z,100248.89
2018-05-04T18:21:12.625Z,100259.80
2018-05-04T18:23:44.020Z,100255.32
2018-05-04T18:26:15.507Z,100262.84
2018-05-04T18:28:47.973Z,100273.12
2018-05-04T18:31:19.233Z,100274.98
2018-05-04T18:33:50.568Z,100269.89
2018-05-04T18:36:22.187Z,100280.04
2018-05-04T18:38:53.514Z,100280.69
2018-05-04T18:41:26.991Z,100284.78
2018-05-04T18:43:59.208Z,100280.81
2018-05-04T18:46:30.832Z,100287.23
2018-05-04T18:49:02.607Z,100282.02
2018-05-04T18:51:35.887Z,100294.66
2018-05-04T18:54:08.778Z,100298.50
2018-05-04T18:56:40.251Z,100299.83
2018-05-04T18:59:12.555Z,100306.52
2018-05-04T19:01:44.323Z,100311.02
2018-05-04T19:04:15.723Z,100326.13
2018-05-04T19:06:47.114Z,100328.08
2018-05-04T19:09:18.559Z,100323.64
2018-05-04T19:11:50.673Z,100323.71
2018-05-04T19:14:23.277Z,100321.16
2018-05-04T19:16:54.608Z,100317.91
2018-05-04T19:19:26.302Z,100323.05
2018-05-04T19:21:58.158Z,100331.63
2018-05-04T19:24:30.426Z,100326.81
2018-05-04T19:27:01.773Z,100330.25
2018-05-04T19:29:34.344Z,100334.95
2018-05-04T19:32:05.726Z,100332.80
2018-05-04T19:34:37.938Z,100331.06
2018-05-04T19:37:09.795Z,100331.24
2018-05-04T19:39:41.101Z,100331.09
2018-05-04T19:42:13.310Z,100333.13
2018-05-04T19:44:44.797Z,100340.61
2018-05-04T19:47:16.651Z,100342.75
2018-05-04T19:49:49.263Z,100345.71
2018-05-04T19:52:20.656Z,100355.19
2018-05-04T19:54:52.093Z,100351.69
2018-05-04T19:57:23.948Z,100353.13
2018-05-04T19:59:55.362Z,100360.27
2018-05-04T20:02:26.928Z,100359.00
2018-05-04T20:04:58.273Z,100364.89
2018-05-04T20:07:29.743Z,100366.76
2018-05-04T20:10:02.406Z,100364.40
2018-05-04T20:12:33.984Z,100368.31
2018-05-04T20:15:06.946Z,100364.52
2018-05-04T20:17:41.915Z,100373.52
2018-05-04T20:20:14.099Z,100374.23
2018-05-04T20:22:46.048Z,100363.94
2018-05-04T20:25:17.532Z,100366.70
2018-05-04T20:27:48.933Z,100366.37
2018-05-04T20:30:20.380Z,100372.59
2018-05-04T20:32:52.651Z,100377.51
2018-05-04T20:35:26.604Z,100385.97
2018-05-04T20:37:57.964Z,100380.75
2018-05-04T20:40:30.085Z,100381.51
2018-05-04T20:43:02.141Z,100376.34
2018-05-04T20:45:34.376Z,100386.76
2018-05-04T20:48:06.221Z,100397.17
2018-05-04T20:50:37.676Z,100396.20
2018-05-04T20:53:09.999Z,100398.31
2018-05-04T20:55:42.784Z,100399.66
2018-05-04T20:58:14.397Z,100401.00
2018-05-04T21:00:46.089Z,100402.27
2018-05-04T21:03:17.521Z,100405.59
2018-05-04T21:05:49.792Z,100410.53
2018-05-04T21:08:23.696Z,100404.48
2018-05-04T21:10:55.131Z,100412.96
2018-05-04T21:13:26.864Z,100412.45
2018-05-04T21:15:58.713Z,100410.33
2018-05-04T21:18:30.237Z,100409.63
2018-05-04T21:21:02.522Z,100420.30
2018-05-04T21:23:35.118Z,100417.22
2018-05-04T21:26:06.645Z,100415.85
2018-05-04T21:28:38.885Z,100419.34
2018-05-04T21:31:11.547Z,100420.63
2018-05-04T21:33:42.979Z,100421.28
2018-05-04T21:36:14.393Z,100402.00
2018-05-04T21:38:46.765Z,100421.73
2018-05-04T21:41:18.100Z,100420.97
2018-05-04T21:43:50.109Z,100422.88
2018-05-04T21:46:21.450Z,100438.17
2018-05-04T21:48:56.459Z,100437.00
2018-05-04T21:51:28.833Z,100434.63
2018-05-04T21:54:00.108Z,100439.23
2018-05-04T21:56:31.486Z,100438.88
2018-05-04T21:59:02.966Z,100425.45
2018-05-04T22:01:34.791Z,100430.84
2018-05-04T22:04:06.210Z,100438.95
2018-05-04T22:06:37.581Z,100443.91
2018-05-04T22:09:11.047Z,100439.59
2018-05-04T22:11:42.455Z,100444.53
2018-05-04T22:14:13.738Z,100444.11
2018-05-04T22:16:45.581Z,100443.41
2018-05-04T22:19:17.784Z,100452.59
2018-05-04T22:21:49.298Z,100445.39
2018-05-04T22:24:22.437Z,100453.78
2018-05-04T22:26:55.306Z,100453.69
2018-05-04T22:29:27.043Z,100449.75
2018-05-04T22:31:58.436Z,100447.76
2018-05-04T22:34:30.003Z,100455.00
2018-05-04T22:37:01.299Z,100454.27
2018-05-04T22:39:32.559Z,100460.76
2018-05-04T22:42:04.689Z,100453.30
2018-05-04T22:44:36.021Z,100455.09
2018-05-04T22:47:08.402Z,100457.39
2018-05-04T22:49:40.209Z,100456.56
2018-05-04T22:52:11.542Z,100458.21
2018-05-04T22:54:45.085Z,100461.52
2018-05-04T22:57:16.416Z,100457.63
2018-05-04T22:59:47.865Z,100457.29
2018-05-04T23:02:19.579Z,100454.61
2018-05-04T23:04:50.916Z,100463.20
2018-05-04T23:07:22.311Z,100456.69
2018-05-04T23:09:54.244Z,100465.23
2018-05-04T23:12:25.702Z,100467.62
2018-05-04T23:14:57.071Z,100464.09
2018-05-04T23:17:28.836Z,100461.84
2018-05-04T23:20:00.935Z,100461.88
2018-05-04T23:22:34.700Z,100468.97
2018-05-04T23:25:06.040Z,100475.64
2018-05-04T23:27:37.512Z,100472.39
2018-05-04T23:30:09.301Z,100482.06
2018-05-04T23:32:42.569Z,100466.67
2018-05-04T23:35:14.059Z,100484.67
2018-05-04T23:37:45.317Z,100477.59
2018-05-04T23:40:16.675Z,100480.16
2018-05-04T23:42:48.308Z,100481.22
2018-05-04T23:45:20.390Z,100475.94
2018-05-04T23:47:51.871Z,100480.66
2018-05-04T23:50:24.023Z,100476.06
2018-05-04T23:52:56.149Z,100473.99
2018-05-04T23:55:29.091Z,100480.96
2018-05-04T23:58:00.527Z,100478.16
